Edeia, Brazil
Current Conditions -  °F | °C
As of 4:00 PM on Tuesday 21 Oct 2014 (Local Time) from SBGO Reporting Station
Scattered Clouds Scattered Clouds  
Wind Chill: 91°   Ceiling: Unl
Heat Index: 91°   Visibility: 6mi
Dew Point: 52°   Wind: 9mph
Humidity: 26%   Direction: 170°S
Pressure: 29.91"   Gusts: NA
Location:  17.33°S, 49.93°W
Report Text: SBGO 211800Z 17008KT 9999 SCT040 SCT100 33/11 Q1013
Loading
Personal Weather Stations






























Interactive Weather Map
Tropical Storm Tracking
New forecast layout! Learn more

10-Day Weather Forecast

Advertisements
Track Severe Weather on mobile